sensor_id;sensor_type;location;lat;lon;timestamp;pressure;altitude;pressure_sealevel;temperature;humidity
54806;BME280;62866;55.776;37.496;2022-12-18T00:01:27;99346.63;;;-3.91;100.00
54806;BME280;62866;55.776;37.496;2022-12-18T00:03:54;99336.81;;;-4.00;100.00
54806;BME280;62866;55.776;37.496;2022-12-18T00:06:21;99323.69;;;-4.11;100.00
54806;BME280;62866;55.776;37.496;2022-12-18T00:08:47;99323.38;;;-4.07;100.00
54806;BME280;62866;55.776;37.496;2022-12-18T00:11:16;99318.78;;;-4.03;100.00
54806;BME280;62866;55.776;37.496;2022-12-18T00:13:42;99307.91;;;-4.10;100.00
54806;BME280;62866;55.776;37.496;2022-12-18T00:16:14;99311.16;;;-4.06;100.00
54806;BME280;62866;55.776;37.496;2022-12-18T00:18:40;99317.69;;;-4.01;100.00
54806;BME280;62866;55.776;37.496;2022-12-18T00:21:09;99293.38;;;-4.01;100.00
54806;BME280;62866;55.776;37.496;2022-12-18T00:23:36;99300.06;;;-3.97;100.00
54806;BME280;62866;55.776;37.496;2022-12-18T00:26:10;99289.50;;;-3.96;100.00
54806;BME280;62866;55.776;37.496;2022-12-18T00:28:36;99286.25;;;-3.99;100.00
54806;BME280;62866;55.776;37.496;2022-12-18T00:31:03;99279.91;;;-3.95;100.00
54806;BME280;62866;55.776;37.496;2022-12-18T00:33:28;99280.84;;;-3.96;100.00
54806;BME280;62866;55.776;37.496;2022-12-18T00:35:54;99274.56;;;-3.94;100.00
54806;BME280;62866;55.776;37.496;2022-12-18T00:38:20;99273.72;;;-3.94;100.00
54806;BME280;62866;55.776;37.496;2022-12-18T00:40:45;99267.78;;;-3.96;100.00
54806;BME280;62866;55.776;37.496;2022-12-18T00:43:11;99276.44;;;-3.96;100.00
54806;BME280;62866;55.776;37.496;2022-12-18T00:45:36;99274.78;;;-3.97;100.00
54806;BME280;62866;55.776;37.496;2022-12-18T00:48:02;99273.28;;;-3.88;100.00
54806;BME280;62866;55.776;37.496;2022-12-18T00:50:27;99261.38;;;-3.92;100.00
54806;BME280;62866;55.776;37.496;2022-12-18T00:52:53;99262.09;;;-3.90;100.00
54806;BME280;62866;55.776;37.496;2022-12-18T00:55:18;99261.78;;;-3.86;100.00
54806;BME280;62866;55.776;37.496;2022-12-18T00:57:44;99251.00;;;-3.81;100.00
54806;BME280;62866;55.776;37.496;2022-12-18T01:00:12;99252.13;;;-3.72;100.00
54806;BME280;62866;55.776;37.496;2022-12-18T01:02:40;99244.09;;;-3.82;100.00
54806;BME280;62866;55.776;37.496;2022-12-18T01:05:06;99240.50;;;-3.92;100.00
54806;BME280;62866;55.776;37.496;2022-12-18T01:07:32;99234.59;;;-4.07;100.00
54806;BME280;62866;55.776;37.496;2022-12-18T01:09:57;99240.16;;;-4.11;100.00
54806;BME280;62866;55.776;37.496;2022-12-18T01:12:23;99226.00;;;-4.20;100.00
54806;BME280;62866;55.776;37.496;2022-12-18T01:14:48;99233.47;;;-4.15;100.00
54806;BME280;62866;55.776;37.496;2022-12-18T01:17:14;99221.16;;;-4.13;100.00
54806;BME280;62866;55.776;37.496;2022-12-18T01:19:40;99203.72;;;-4.13;100.00
54806;BME280;62866;55.776;37.496;2022-12-18T01:22:05;99213.22;;;-4.12;100.00
54806;BME280;62866;55.776;37.496;2022-12-18T01:24:31;99203.72;;;-4.13;100.00
54806;BME280;62866;55.776;37.496;2022-12-18T01:26:57;99200.72;;;-4.19;100.00
54806;BME280;62866;55.776;37.496;2022-12-18T01:29:22;99208.94;;;-4.13;100.00
54806;BME280;62866;55.776;37.496;2022-12-18T01:31:48;99219.50;;;-4.14;100.00
54806;BME280;62866;55.776;37.496;2022-12-18T01:34:14;99221.16;;;-4.13;100.00
54806;BME280;62866;55.776;37.496;2022-12-18T01:36:40;99223.38;;;-4.20;100.00
54806;BME280;62866;55.776;37.496;2022-12-18T01:39:11;99215.88;;;-4.25;100.00
54806;BME280;62866;55.776;37.496;2022-12-18T01:41:38;99218.16;;;-4.20;100.00
54806;BME280;62866;55.776;37.496;2022-12-18T01:47:20;99209.03;;;-4.14;100.00
54806;BME280;62866;55.776;37.496;2022-12-18T01:49:46;99218.44;;;-4.12;100.00
54806;BME280;62866;55.776;37.496;2022-12-18T01:52:13;99214.47;;;-4.17;100.00
54806;BME280;62866;55.776;37.496;2022-12-18T01:54:38;99215.22;;;-4.15;100.00
54806;BME280;62866;55.776;37.496;2022-12-18T01:57:04;99215.22;;;-4.15;100.00
54806;BME280;62866;55.776;37.496;2022-12-18T01:59:31;99205.31;;;-4.23;100.00
54806;BME280;62866;55.776;37.496;2022-12-18T02:01:59;99207.00;;;-4.22;100.00
54806;BME280;62866;55.776;37.496;2022-12-18T02:04:26;99209.69;;;-4.24;100.00
54806;BME280;62866;55.776;37.496;2022-12-18T02:10:00;99200.28;;;-4.13;100.00
54806;BME280;62866;55.776;37.496;2022-12-18T02:15:30;99208.41;;;-4.18;100.00
54806;BME280;62866;55.776;37.496;2022-12-18T02:18:18;99206.66;;;-4.17;100.00
54806;BME280;62866;55.776;37.496;2022-12-18T02:20:49;99209.03;;;-4.14;100.00
54806;BME280;62866;55.776;37.496;2022-12-18T02:26:14;99223.88;;;-4.15;100.00
54806;BME280;62866;55.776;37.496;2022-12-18T02:29:03;99220.78;;;-4.20;100.00
54806;BME280;62866;55.776;37.496;2022-12-18T02:31:35;99217.63;;;-4.25;100.00
54806;BME280;62866;55.776;37.496;2022-12-18T02:34:04;99220.97;;;-4.23;100.00
54806;BME280;62866;55.776;37.496;2022-12-18T02:36:32;99208.88;;;-4.24;100.00
54806;BME280;62866;55.776;37.496;2022-12-18T02:39:00;99208.97;;;-4.26;100.00
54806;BME280;62866;55.776;37.496;2022-12-18T02:41:27;99208.22;;;-4.15;100.00
54806;BME280;62866;55.776;37.496;2022-12-18T02:43:57;99208.84;;;-4.11;100.00
54806;BME280;62866;55.776;37.496;2022-12-18T02:46:28;99200.50;;;-4.16;100.00
54806;BME280;62866;55.776;37.496;2022-12-18T02:52:05;99218.66;;;-4.15;100.00
54806;BME280;62866;55.776;37.496;2022-12-18T03:00:27;99215.88;;;-4.25;100.00
54806;BME280;62866;55.776;37.496;2022-12-18T03:03:07;99206.81;;;-4.32;100.00
54806;BME280;62866;55.776;37.496;2022-12-18T03:05:44;99201.59;;;-4.32;100.00
54806;BME280;62866;55.776;37.496;2022-12-18T03:08:18;99206.06;;;-4.34;100.00
54806;BME280;62866;55.776;37.496;2022-12-18T03:10:50;99200.47;;;-4.40;100.00
54806;BME280;62866;55.776;37.496;2022-12-18T03:13:25;99209.97;;;-4.39;100.00
54806;BME280;62866;55.776;37.496;2022-12-18T03:16:06;99203.47;;;-4.34;100.00
54806;BME280;62866;55.776;37.496;2022-12-18T03:18:46;99189.56;;;-4.22;100.00
54806;BME280;62866;55.776;37.496;2022-12-18T03:21:14;99214.16;;;-4.37;100.00
54806;BME280;62866;55.776;37.496;2022-12-18T03:23:47;99191.91;;;-4.42;100.00
54806;BME280;62866;55.776;37.496;2022-12-18T03:26:16;99197.97;;;-4.42;100.00
54806;BME280;62866;55.776;37.496;2022-12-18T03:28:51;99197.47;;;-4.47;100.00
54806;BME280;62866;55.776;37.496;2022-12-18T03:31:18;99219.06;;;-4.45;100.00
54806;BME280;62866;55.776;37.496;2022-12-18T03:33:50;99233.09;;;-4.35;100.00
54806;BME280;62866;55.776;37.496;2022-12-18T03:36:17;99219.75;;;-4.30;100.00
54806;BME280;62866;55.776;37.496;2022-12-18T03:38:42;99231.13;;;-4.31;100.00
54806;BME280;62866;55.776;37.496;2022-12-18T03:41:25;99214.97;;;-4.36;100.00
54806;BME280;62866;55.776;37.496;2022-12-18T03:44:05;99222.91;;;-4.38;100.00
54806;BME280;62866;55.776;37.496;2022-12-18T03:46:53;99215.91;;;-4.37;100.00
54806;BME280;62866;55.776;37.496;2022-12-18T03:49:33;99218.84;;;-4.42;100.00
54806;BME280;62866;55.776;37.496;2022-12-18T03:52:23;99206.88;;;-4.44;100.00
54806;BME280;62866;55.776;37.496;2022-12-18T03:54:54;99204.84;;;-4.41;100.00
54806;BME280;62866;55.776;37.496;2022-12-18T03:57:24;99206.81;;;-4.32;100.00
54806;BME280;62866;55.776;37.496;2022-12-18T03:59:55;99211.72;;;-4.27;100.00
54806;BME280;62866;55.776;37.496;2022-12-18T04:02:22;99208.28;;;-4.28;100.00
54806;BME280;62866;55.776;37.496;2022-12-18T04:04:51;99196.56;;;-4.22;100.00
54806;BME280;62866;55.776;37.496;2022-12-18T04:07:18;99212.84;;;-4.18;100.00
54806;BME280;62866;55.776;37.496;2022-12-18T04:09:45;99203.75;;;-4.26;100.00
54806;BME280;62866;55.776;37.496;2022-12-18T04:12:11;99200.38;;;-4.39;100.00
54806;BME280;62866;55.776;37.496;2022-12-18T04:14:36;99220.50;;;-4.41;100.00
54806;BME280;62866;55.776;37.496;2022-12-18T04:17:03;99220.31;;;-4.38;100.00
54806;BME280;62866;55.776;37.496;2022-12-18T04:19:28;99210.97;;;-4.29;100.00
54806;BME280;62866;55.776;37.496;2022-12-18T04:21:54;99242.88;;;-4.13;100.00
54806;BME280;62866;55.776;37.496;2022-12-18T04:24:19;99248.94;;;-4.12;100.00
54806;BME280;62866;55.776;37.496;2022-12-18T04:26:45;99255.19;;;-4.15;100.00
54806;BME280;62866;55.776;37.496;2022-12-18T04:29:11;99260.81;;;-4.08;100.00
54806;BME280;62866;55.776;37.496;2022-12-18T04:31:36;99265.47;;;-4.01;100.00
54806;BME280;62866;55.776;37.496;2022-12-18T04:34:02;99274.69;;;-4.08;100.00
54806;BME280;62866;55.776;37.496;2022-12-18T04:36:28;99278.16;;;-4.07;100.00
54806;BME280;62866;55.776;37.496;2022-12-18T04:38:54;99274.09;;;-4.11;100.00
54806;BME280;62866;55.776;37.496;2022-12-18T04:41:19;99276.56;;;-4.10;100.00
54806;BME280;62866;55.776;37.496;2022-12-18T04:43:45;99278.50;;;-4.12;100.00
54806;BME280;62866;55.776;37.496;2022-12-18T04:46:10;99287.75;;;-4.08;100.00
54806;BME280;62866;55.776;37.496;2022-12-18T04:48:36;99303.03;;;-4.14;100.00
54806;BME280;62866;55.776;37.496;2022-12-18T04:51:03;99287.47;;;-4.16;100.00
54806;BME280;62866;55.776;37.496;2022-12-18T04:53:29;99290.06;;;-4.16;100.00
54806;BME280;62866;55.776;37.496;2022-12-18T04:56:09;99297.06;;;-4.16;100.00
54806;BME280;62866;55.776;37.496;2022-12-18T04:58:36;99296.22;;;-4.04;100.00
54806;BME280;62866;55.776;37.496;2022-12-18T05:01:03;99282.91;;;-4.01;100.00
54806;BME280;62866;55.776;37.496;2022-12-18T05:03:28;99291.72;;;-4.02;100.00
54806;BME280;62866;55.776;37.496;2022-12-18T05:05:54;99294.66;;;-4.07;100.00
54806;BME280;62866;55.776;37.496;2022-12-18T05:08:20;99292.13;;;-4.08;100.00
54806;BME280;62866;55.776;37.496;2022-12-18T05:10:45;99296.47;;;-4.20;100.00
54806;BME280;62866;55.776;37.496;2022-12-18T05:13:11;99297.06;;;-4.16;100.00
54806;BME280;62866;55.776;37.496;2022-12-18T05:15:36;99296.66;;;-4.10;100.00
54806;BME280;62866;55.776;37.496;2022-12-18T05:18:02;99302.81;;;-4.11;100.00
54806;BME280;62866;55.776;37.496;2022-12-18T05:20:29;99298.81;;;-4.04;100.00
54806;BME280;62866;55.776;37.496;2022-12-18T05:22:54;99301.00;;;-3.98;100.00
54806;BME280;62866;55.776;37.496;2022-12-18T05:25:21;99316.16;;;-4.03;100.00
54806;BME280;62866;55.776;37.496;2022-12-18T05:27:47;99321.38;;;-4.03;100.00
54806;BME280;62866;55.776;37.496;2022-12-18T05:30:13;99322.75;;;-4.10;100.00
54806;BME280;62866;55.776;37.496;2022-12-18T05:32:39;99324.84;;;-4.03;100.00
54806;BME280;62866;55.776;37.496;2022-12-18T05:35:09;99324.31;;;-4.08;100.00
54806;BME280;62866;55.776;37.496;2022-12-18T05:37:35;99333.91;;;-4.08;100.00
54806;BME280;62866;55.776;37.496;2022-12-18T05:40:02;99338.50;;;-3.99;100.00
54806;BME280;62866;55.776;37.496;2022-12-18T05:42:27;99347.69;;;-4.06;100.00
54806;BME280;62866;55.776;37.496;2022-12-18T05:44:53;99340.38;;;-4.01;100.00
54806;BME280;62866;55.776;37.496;2022-12-18T05:47:19;99349.28;;;-4.04;100.00
54806;BME280;62866;55.776;37.496;2022-12-18T05:49:44;99353.22;;;-3.98;100.00
54806;BME280;62866;55.776;37.496;2022-12-18T05:52:10;99371.28;;;-3.95;100.00
54806;BME280;62866;55.776;37.496;2022-12-18T05:54:35;99365.22;;;-3.96;100.00
54806;BME280;62866;55.776;37.496;2022-12-18T05:57:01;99365.25;;;-4.08;100.00
54806;BME280;62866;55.776;37.496;2022-12-18T05:59:26;99362.84;;;-4.11;100.00
54806;BME280;62866;55.776;37.496;2022-12-18T06:01:52;99376.91;;;-4.01;100.00
54806;BME280;62866;55.776;37.496;2022-12-18T06:04:17;99380.06;;;-4.09;100.00
54806;BME280;62866;55.776;37.496;2022-12-18T06:06:43;99381.84;;;-4.09;100.00
54806;BME280;62866;55.776;37.496;2022-12-18T06:09:08;99398.47;;;-4.10;100.00
54806;BME280;62866;55.776;37.496;2022-12-18T06:11:38;99382.06;;;-4.12;100.00
54806;BME280;62866;55.776;37.496;2022-12-18T06:14:05;99376.72;;;-3.98;100.00
54806;BME280;62866;55.776;37.496;2022-12-18T06:16:31;99391.66;;;-4.00;100.00
54806;BME280;62866;55.776;37.496;2022-12-18T06:18:58;99394.59;;;-4.05;100.00
54806;BME280;62866;55.776;37.496;2022-12-18T06:21:24;99401.56;;;-3.93;100.00
54806;BME280;62866;55.776;37.496;2022-12-18T06:23:49;99409.63;;;-3.96;100.00
54806;BME280;62866;55.776;37.496;2022-12-18T06:26:15;99409.94;;;-3.88;100.00
54806;BME280;62866;55.776;37.496;2022-12-18T06:28:40;99419.09;;;-3.82;100.00
54806;BME280;62866;55.776;37.496;2022-12-18T06:31:07;99419.72;;;-3.78;100.00
54806;BME280;62866;55.776;37.496;2022-12-18T06:33:34;99430.06;;;-3.77;100.00
54806;BME280;62866;55.776;37.496;2022-12-18T06:36:02;99414.41;;;-3.77;100.00
54806;BME280;62866;55.776;37.496;2022-12-18T06:38:28;99430.19;;;-3.78;100.00
54806;BME280;62866;55.776;37.496;2022-12-18T06:40:54;99435.59;;;-3.82;100.00
54806;BME280;62866;55.776;37.496;2022-12-18T06:43:19;99439.47;;;-3.74;100.00
54806;BME280;62866;55.776;37.496;2022-12-18T06:45:45;99439.16;;;-3.70;100.00
54806;BME280;62866;55.776;37.496;2022-12-18T06:48:14;99456.16;;;-3.64;100.00
54806;BME280;62866;55.776;37.496;2022-12-18T06:50:42;99459.13;;;-3.69;100.00
54806;BME280;62866;55.776;37.496;2022-12-18T06:53:07;99473.59;;;-3.52;100.00
54806;BME280;62866;55.776;37.496;2022-12-18T06:55:33;99471.50;;;-3.47;100.00
54806;BME280;62866;55.776;37.496;2022-12-18T06:57:58;99475.56;;;-3.43;100.00
54806;BME280;62866;55.776;37.496;2022-12-18T07:00:24;99465.00;;;-3.41;100.00
54806;BME280;62866;55.776;37.496;2022-12-18T07:02:50;99480.47;;;-3.38;100.00
54806;BME280;62866;55.776;37.496;2022-12-18T07:05:15;99503.06;;;-3.37;100.00
54806;BME280;62866;55.776;37.496;2022-12-18T07:07:41;99494.28;;;-3.49;100.00
54806;BME280;62866;55.776;37.496;2022-12-18T07:10:06;99490.81;;;-3.37;100.00
54806;BME280;62866;55.776;37.496;2022-12-18T07:12:32;99481.31;;;-3.38;100.00
54806;BME280;62866;55.776;37.496;2022-12-18T07:14:57;99477.38;;;-3.56;100.00
54806;BME280;62866;55.776;37.496;2022-12-18T07:17:23;99484.22;;;-3.42;100.00
54806;BME280;62866;55.776;37.496;2022-12-18T07:19:49;99504.19;;;-3.41;100.00
54806;BME280;62866;55.776;37.496;2022-12-18T07:22:14;99507.84;;;-3.31;100.00
54806;BME280;62866;55.776;37.496;2022-12-18T07:24:40;99508.66;;;-3.18;100.00
54806;BME280;62866;55.776;37.496;2022-12-18T07:27:05;99511.56;;;-3.10;100.00
54806;BME280;62866;55.776;37.496;2022-12-18T07:29:31;99530.38;;;-3.18;100.00
54806;BME280;62866;55.776;37.496;2022-12-18T07:31:56;99541.53;;;-3.27;100.00
54806;BME280;62866;55.776;37.496;2022-12-18T07:34:22;99543.59;;;-3.19;100.00
54806;BME280;62866;55.776;37.496;2022-12-18T07:36:47;99534.13;;;-3.09;100.00
54806;BME280;62866;55.776;37.496;2022-12-18T07:39:13;99539.13;;;-2.93;100.00
54806;BME280;62866;55.776;37.496;2022-12-18T07:41:38;99553.75;;;-2.91;100.00
54806;BME280;62866;55.776;37.496;2022-12-18T07:44:10;99543.34;;;-3.03;100.00
54806;BME280;62866;55.776;37.496;2022-12-18T07:46:36;99532.03;;;-3.04;100.00
54806;BME280;62866;55.776;37.496;2022-12-18T07:49:01;99525.03;;;-3.03;100.00
54806;BME280;62866;55.776;37.496;2022-12-18T07:51:27;99535.25;;;-3.00;100.00
54806;BME280;62866;55.776;37.496;2022-12-18T07:53:52;99538.06;;;-2.91;100.00
54806;BME280;62866;55.776;37.496;2022-12-18T07:56:19;99545.41;;;-2.96;100.00
54806;BME280;62866;55.776;37.496;2022-12-18T07:58:44;99539.94;;;-2.93;100.00
54806;BME280;62866;55.776;37.496;2022-12-18T08:01:11;99535.59;;;-3.05;100.00
54806;BME280;62866;55.776;37.496;2022-12-18T08:03:38;99537.31;;;-2.93;100.00
54806;BME280;62866;55.776;37.496;2022-12-18T08:06:06;99540.03;;;-2.82;100.00
54806;BME280;62866;55.776;37.496;2022-12-18T08:08:32;99554.59;;;-2.67;100.00
54806;BME280;62866;55.776;37.496;2022-12-18T08:10:58;99549.50;;;-2.68;100.00
54806;BME280;62866;55.776;37.496;2022-12-18T08:13:25;99563.84;;;-2.74;100.00
54806;BME280;62866;55.776;37.496;2022-12-18T08:16:02;99578.31;;;-2.81;100.00
54806;BME280;62866;55.776;37.496;2022-12-18T08:18:28;99590.78;;;-2.84;100.00
54806;BME280;62866;55.776;37.496;2022-12-18T08:20:54;99596.25;;;-2.87;100.00
54806;BME280;62866;55.776;37.496;2022-12-18T08:23:20;99609.72;;;-2.81;100.00
54806;BME280;62866;55.776;37.496;2022-12-18T08:25:46;99615.88;;;-2.69;100.00
54806;BME280;62866;55.776;37.496;2022-12-18T08:28:12;99625.91;;;-2.76;100.00
54806;BME280;62866;55.776;37.496;2022-12-18T08:30:38;99620.38;;;-2.84;100.00
54806;BME280;62866;55.776;37.496;2022-12-18T08:33:04;99623.97;;;-2.85;100.00
54806;BME280;62866;55.776;37.496;2022-12-18T08:35:29;99612.78;;;-2.99;100.00
54806;BME280;62866;55.776;37.496;2022-12-18T08:37:55;99614.31;;;-2.84;100.00
54806;BME280;62866;55.776;37.496;2022-12-18T08:40:20;99609.22;;;-2.86;100.00
54806;BME280;62866;55.776;37.496;2022-12-18T08:42:46;99617.66;;;-2.82;100.00
54806;BME280;62866;55.776;37.496;2022-12-18T08:45:30;99618.69;;;-2.72;100.00
54806;BME280;62866;55.776;37.496;2022-12-18T08:47:55;99621.94;;;-2.69;100.00
54806;BME280;62866;55.776;37.496;2022-12-18T08:50:21;99633.44;;;-2.71;100.00
54806;BME280;62866;55.776;37.496;2022-12-18T08:52:46;99638.59;;;-2.70;100.00
54806;BME280;62866;55.776;37.496;2022-12-18T08:55:12;99629.16;;;-2.72;100.00
54806;BME280;62866;55.776;37.496;2022-12-18T08:57:37;99627.56;;;-2.62;100.00
54806;BME280;62866;55.776;37.496;2022-12-18T09:00:04;99629.75;;;-2.56;100.00
54806;BME280;62866;55.776;37.496;2022-12-18T09:02:30;99627.13;;;-2.56;100.00
54806;BME280;62866;55.776;37.496;2022-12-18T09:04:55;99636.31;;;-2.50;100.00
54806;BME280;62866;55.776;37.496;2022-12-18T09:07:21;99632.56;;;-2.59;100.00
54806;BME280;62866;55.776;37.496;2022-12-18T09:09:46;99633.53;;;-2.60;100.00
54806;BME280;62866;55.776;37.496;2022-12-18T09:12:12;99635.44;;;-2.75;100.00
54806;BME280;62866;55.776;37.496;2022-12-18T09:14:37;99637.66;;;-2.81;99.83
54806;BME280;62866;55.776;37.496;2022-12-18T09:17:03;99643.31;;;-3.00;99.71
54806;BME280;62866;55.776;37.496;2022-12-18T09:19:28;99650.97;;;-2.97;99.85
54806;BME280;62866;55.776;37.496;2022-12-18T09:21:56;99655.56;;;-2.88;99.99
54806;BME280;62866;55.776;37.496;2022-12-18T09:24:22;99660.47;;;-2.83;100.00
54806;BME280;62866;55.776;37.496;2022-12-18T09:26:47;99664.22;;;-2.75;100.00
54806;BME280;62866;55.776;37.496;2022-12-18T09:29:14;99666.81;;;-2.62;100.00
54806;BME280;62866;55.776;37.496;2022-12-18T09:31:40;99678.22;;;-2.63;100.00
54806;BME280;62866;55.776;37.496;2022-12-18T09:34:06;99680.09;;;-2.52;100.00
54806;BME280;62866;55.776;37.496;2022-12-18T09:36:31;99693.84;;;-2.61;100.00
54806;BME280;62866;55.776;37.496;2022-12-18T09:38:57;99694.44;;;-2.58;100.00
54806;BME280;62866;55.776;37.496;2022-12-18T09:41:51;99704.50;;;-2.52;100.00
54806;BME280;62866;55.776;37.496;2022-12-18T09:44:25;99712.84;;;-2.47;100.00
54806;BME280;62866;55.776;37.496;2022-12-18T09:46:58;99703.94;;;-2.44;100.00
54806;BME280;62866;55.776;37.496;2022-12-18T09:49:29;99718.59;;;-2.42;100.00
54806;BME280;62866;55.776;37.496;2022-12-18T09:52:21;99711.31;;;-2.62;100.00
54806;BME280;62866;55.776;37.496;2022-12-18T09:54:56;99716.75;;;-2.65;100.00
54806;BME280;62866;55.776;37.496;2022-12-18T09:57:24;99709.88;;;-2.79;100.00
54806;BME280;62866;55.776;37.496;2022-12-18T10:00:04;99713.31;;;-2.78;100.00
54806;BME280;62866;55.776;37.496;2022-12-18T10:02:32;99721.28;;;-2.80;100.00
54806;BME280;62866;55.776;37.496;2022-12-18T10:05:10;99727.53;;;-2.82;100.00
54806;BME280;62866;55.776;37.496;2022-12-18T10:07:59;99736.34;;;-2.96;100.00
54806;BME280;62866;55.776;37.496;2022-12-18T10:13:12;99731.34;;;-2.86;100.00
54806;BME280;62866;55.776;37.496;2022-12-18T10:16:15;99735.31;;;-2.93;100.00
54806;BME280;62866;55.776;37.496;2022-12-18T10:19:21;99742.94;;;-3.03;100.00
54806;BME280;62866;55.776;37.496;2022-12-18T10:24:59;99741.16;;;-3.02;100.00
54806;BME280;62866;55.776;37.496;2022-12-18T10:27:27;99738.25;;;-3.11;100.00
54806;BME280;62866;55.776;37.496;2022-12-18T10:29:54;99745.75;;;-3.06;100.00
54806;BME280;62866;55.776;37.496;2022-12-18T10:32:29;99736.84;;;-3.16;100.00
54806;BME280;62866;55.776;37.496;2022-12-18T10:34:57;99734.56;;;-3.08;100.00
54806;BME280;62866;55.776;37.496;2022-12-18T10:37:27;99732.78;;;-3.08;100.00
54806;BME280;62866;55.776;37.496;2022-12-18T10:40:14;99735.19;;;-3.04;100.00
54806;BME280;62866;55.776;37.496;2022-12-18T10:42:40;99731.94;;;-3.08;100.00
54806;BME280;62866;55.776;37.496;2022-12-18T10:45:15;99751.00;;;-3.19;100.00
54806;BME280;62866;55.776;37.496;2022-12-18T10:47:46;99747.00;;;-3.24;100.00
54806;BME280;62866;55.776;37.496;2022-12-18T10:50:33;99755.66;;;-3.24;100.00
54806;BME280;62866;55.776;37.496;2022-12-18T10:53:01;99761.22;;;-3.16;100.00
54806;BME280;62866;55.776;37.496;2022-12-18T10:55:35;99774.84;;;-3.11;100.00
54806;BME280;62866;55.776;37.496;2022-12-18T11:01:06;99788.63;;;-3.21;100.00
54806;BME280;62866;55.776;37.496;2022-12-18T11:08:32;99803.16;;;-3.30;100.00
54806;BME280;62866;55.776;37.496;2022-12-18T11:10:58;99810.38;;;-3.21;100.00
54806;BME280;62866;55.776;37.496;2022-12-18T11:13:29;99806.75;;;-3.18;100.00
54806;BME280;62866;55.776;37.496;2022-12-18T11:15:56;99805.34;;;-3.24;100.00
54806;BME280;62866;55.776;37.496;2022-12-18T11:18:30;99800.22;;;-3.25;100.00
54806;BME280;62866;55.776;37.496;2022-12-18T11:21:09;99813.19;;;-3.24;100.00
54806;BME280;62866;55.776;37.496;2022-12-18T11:23:37;99818.31;;;-3.35;100.00
54806;BME280;62866;55.776;37.496;2022-12-18T11:26:09;99808.66;;;-3.34;100.00
54806;BME280;62866;55.776;37.496;2022-12-18T11:28:41;99816.56;;;-3.22;100.00
54806;BME280;62866;55.776;37.496;2022-12-18T11:34:00;99816.13;;;-3.16;100.00
54806;BME280;62866;55.776;37.496;2022-12-18T11:36:34;99819.06;;;-3.20;100.00
54806;BME280;62866;55.776;37.496;2022-12-18T11:39:09;99834.19;;;-3.25;100.00
54806;BME280;62866;55.776;37.496;2022-12-18T11:42:20;99827.44;;;-3.15;100.00
54806;BME280;62866;55.776;37.496;2022-12-18T11:45:08;99810.56;;;-3.24;100.00
54806;BME280;62866;55.776;37.496;2022-12-18T11:53:13;99836.09;;;-3.27;100.00
54806;BME280;62866;55.776;37.496;2022-12-18T11:55:49;99857.09;;;-3.29;100.00
54806;BME280;62866;55.776;37.496;2022-12-18T11:58:46;99844.88;;;-3.28;100.00
54806;BME280;62866;55.776;37.496;2022-12-18T12:01:18;99866.81;;;-3.31;100.00
54806;BME280;62866;55.776;37.496;2022-12-18T12:09:11;99873.88;;;-3.46;100.00
54806;BME280;62866;55.776;37.496;2022-12-18T12:14:48;99895.41;;;-3.28;100.00
54806;BME280;62866;55.776;37.496;2022-12-18T12:17:42;99897.84;;;-3.39;100.00
54806;BME280;62866;55.776;37.496;2022-12-18T12:20:20;99881.38;;;-3.54;100.00
54806;BME280;62866;55.776;37.496;2022-12-18T12:22:50;99898.50;;;-3.35;100.00
54806;BME280;62866;55.776;37.496;2022-12-18T12:25:41;99902.88;;;-3.36;100.00
54806;BME280;62866;55.776;37.496;2022-12-18T12:38:47;99938.56;;;-3.35;100.00
54806;BME280;62866;55.776;37.496;2022-12-18T12:41:20;99932.56;;;-3.37;100.00
54806;BME280;62866;55.776;37.496;2022-12-18T12:44:09;99946.97;;;-3.44;100.00
54806;BME280;62866;55.776;37.496;2022-12-18T12:46:40;99952.47;;;-3.49;100.00
54806;BME280;62866;55.776;37.496;2022-12-18T12:49:16;99959.69;;;-3.52;100.00
54806;BME280;62866;55.776;37.496;2022-12-18T12:51:49;99959.19;;;-3.45;100.00
54806;BME280;62866;55.776;37.496;2022-12-18T12:54:22;99977.94;;;-3.38;100.00
54806;BME280;62866;55.776;37.496;2022-12-18T12:57:01;99976.34;;;-3.40;100.00
54806;BME280;62866;55.776;37.496;2022-12-18T13:00:07;99985.59;;;-3.35;100.00
54806;BME280;62866;55.776;37.496;2022-12-18T13:05:54;99999.50;;;-3.49;100.00
54806;BME280;62866;55.776;37.496;2022-12-18T13:08:27;100018.66;;;-3.48;100.00
54806;BME280;62866;55.776;37.496;2022-12-18T13:10:55;100015.38;;;-3.37;100.00
54806;BME280;62866;55.776;37.496;2022-12-18T13:13:55;100022.28;;;-3.36;100.00
54806;BME280;62866;55.776;37.496;2022-12-18T13:16:23;100025.00;;;-3.38;100.00
54806;BME280;62866;55.776;37.496;2022-12-18T13:18:57;100032.28;;;-3.29;100.00
54806;BME280;62866;55.776;37.496;2022-12-18T13:21:32;100027.03;;;-3.29;100.00
54806;BME280;62866;55.776;37.496;2022-12-18T13:24:20;100024.81;;;-3.35;100.00
54806;BME280;62866;55.776;37.496;2022-12-18T13:26:48;100027.69;;;-3.39;100.00
54806;BME280;62866;55.776;37.496;2022-12-18T13:29:51;100038.16;;;-3.39;100.00
54806;BME280;62866;55.776;37.496;2022-12-18T13:32:25;100048.06;;;-3.45;100.00
54806;BME280;62866;55.776;37.496;2022-12-18T13:37:51;100056.56;;;-3.27;100.00
54806;BME280;62866;55.776;37.496;2022-12-18T13:43:47;100095.09;;;-3.16;100.00
54806;BME280;62866;55.776;37.496;2022-12-18T13:46:27;100079.41;;;-3.16;100.00
54806;BME280;62866;55.776;37.496;2022-12-18T13:49:03;100101.84;;;-3.12;100.00
54806;BME280;62866;55.776;37.496;2022-12-18T13:51:32;100096.03;;;-3.17;100.00
54806;BME280;62866;55.776;37.496;2022-12-18T13:54:01;100099.22;;;-3.12;100.00
54806;BME280;62866;55.776;37.496;2022-12-18T13:56:31;100097.81;;;-3.03;100.00
54806;BME280;62866;55.776;37.496;2022-12-18T14:01:29;100105.94;;;-3.22;100.00
54806;BME280;62866;55.776;37.496;2022-12-18T14:04:20;100128.25;;;-3.17;100.00
54806;BME280;62866;55.776;37.496;2022-12-18T14:06:47;100120.53;;;-3.18;100.00
54806;BME280;62866;55.776;37.496;2022-12-18T14:09:28;100128.47;;;-3.20;100.00